BLZ weather

Chileka International Airport
Blantyre, Blantyre District, Malawi

Public forecast

Using degrees Celsius for public forecast. Weather courtesy of forecast.io.

METAR (pilot weather report)

Retrieved 2019/05/26 16:00 UTC (54 minutes ago):

FWCL 261600Z 19004KT 9999 FEW018 20/15 Q1021 NOSIG

TAF (pilot weather forecast)

Forecast is more than 6 hours old.

Retrieved 2019/05/26 06:00 UTC (11 hours ago):

TAF FWCL 260400Z 2606/2712 23005KT 9999 SCT025 BECMG 2610/2614 20008KT 9999 BKN025 BECMG 2616/2620 21006KT 9999 FEW020 BECMG 2704/2708 22006KT 9999 SCT018